sensor_id;sensor_type;location;lat;lon;timestamp;P1;durP1;ratioP1;P2;durP2;ratioP2
59734;SDS011;64362;45.620;4.920;2022-10-16T00:00:36;3.85;;;2.45;;
59734;SDS011;64362;45.620;4.920;2022-10-16T00:03:03;8.07;;;2.58;;
59734;SDS011;64362;45.620;4.920;2022-10-16T00:05:29;6.82;;;2.55;;
59734;SDS011;64362;45.620;4.920;2022-10-16T00:07:54;4.55;;;2.28;;
59734;SDS011;64362;45.620;4.920;2022-10-16T00:10:20;6.45;;;2.30;;
59734;SDS011;64362;45.620;4.920;2022-10-16T00:12:46;5.43;;;2.60;;
59734;SDS011;64362;45.620;4.920;2022-10-16T00:15:11;5.75;;;2.63;;
59734;SDS011;64362;45.620;4.920;2022-10-16T00:17:37;6.72;;;2.33;;
59734;SDS011;64362;45.620;4.920;2022-10-16T00:20:03;6.40;;;2.80;;
59734;SDS011;64362;45.620;4.920;2022-10-16T00:22:29;5.53;;;2.75;;
59734;SDS011;64362;45.620;4.920;2022-10-16T00:24:54;6.10;;;2.25;;
59734;SDS011;64362;45.620;4.920;2022-10-16T00:27:20;5.95;;;2.30;;
59734;SDS011;64362;45.620;4.920;2022-10-16T00:29:49;5.97;;;2.28;;
59734;SDS011;64362;45.620;4.920;2022-10-16T00:32:15;4.80;;;2.70;;
59734;SDS011;64362;45.620;4.920;2022-10-16T00:34:41;4.78;;;2.30;;
59734;SDS011;64362;45.620;4.920;2022-10-16T00:37:06;4.90;;;2.60;;
59734;SDS011;64362;45.620;4.920;2022-10-16T00:39:32;4.63;;;2.28;;
59734;SDS011;64362;45.620;4.920;2022-10-16T00:41:57;4.43;;;2.30;;
59734;SDS011;64362;45.620;4.920;2022-10-16T00:47:11;5.93;;;2.55;;
59734;SDS011;64362;45.620;4.920;2022-10-16T00:49:53;6.22;;;2.13;;
59734;SDS011;64362;45.620;4.920;2022-10-16T00:52:24;4.13;;;2.28;;
59734;SDS011;64362;45.620;4.920;2022-10-16T00:54:50;4.00;;;2.25;;
59734;SDS011;64362;45.620;4.920;2022-10-16T00:57:17;4.78;;;2.03;;
59734;SDS011;64362;45.620;4.920;2022-10-16T00:59:43;5.00;;;2.25;;
59734;SDS011;64362;45.620;4.920;2022-10-16T01:02:09;5.15;;;2.20;;
59734;SDS011;64362;45.620;4.920;2022-10-16T01:04:38;3.90;;;2.38;;
59734;SDS011;64362;45.620;4.920;2022-10-16T01:12:32;3.20;;;2.00;;
59734;SDS011;64362;45.620;4.920;2022-10-16T01:28:22;4.93;;;2.70;;
59734;SDS011;64362;45.620;4.920;2022-10-16T01:30:52;4.22;;;2.00;;
59734;SDS011;64362;45.620;4.920;2022-10-16T01:33:21;5.05;;;2.13;;
59734;SDS011;64362;45.620;4.920;2022-10-16T01:35:53;3.42;;;2.20;;
59734;SDS011;64362;45.620;4.920;2022-10-16T01:38:26;5.78;;;1.98;;
59734;SDS011;64362;45.620;4.920;2022-10-16T01:40:58;3.45;;;2.30;;
59734;SDS011;64362;45.620;4.920;2022-10-16T01:46:27;5.03;;;2.63;;
59734;SDS011;64362;45.620;4.920;2022-10-16T01:48:53;3.50;;;2.60;;
59734;SDS011;64362;45.620;4.920;2022-10-16T01:51:19;3.53;;;2.30;;
59734;SDS011;64362;45.620;4.920;2022-10-16T01:53:48;4.60;;;2.45;;
59734;SDS011;64362;45.620;4.920;2022-10-16T01:56:18;4.55;;;2.30;;
59734;SDS011;64362;45.620;4.920;2022-10-16T01:58:47;4.00;;;2.78;;
59734;SDS011;64362;45.620;4.920;2022-10-16T02:01:15;4.93;;;2.38;;
59734;SDS011;64362;45.620;4.920;2022-10-16T02:03:42;4.70;;;2.25;;
59734;SDS011;64362;45.620;4.920;2022-10-16T02:06:08;4.53;;;2.10;;
59734;SDS011;64362;45.620;4.920;2022-10-16T02:08:33;6.60;;;2.40;;
59734;SDS011;64362;45.620;4.920;2022-10-16T02:10:59;4.72;;;2.40;;
59734;SDS011;64362;45.620;4.920;2022-10-16T02:13:30;3.50;;;2.20;;
59734;SDS011;64362;45.620;4.920;2022-10-16T02:16:11;3.13;;;2.00;;
59734;SDS011;64362;45.620;4.920;2022-10-16T02:18:37;4.78;;;2.00;;
59734;SDS011;64362;45.620;4.920;2022-10-16T02:24:08;4.82;;;2.20;;
59734;SDS011;64362;45.620;4.920;2022-10-16T02:26:42;3.60;;;2.30;;
59734;SDS011;64362;45.620;4.920;2022-10-16T02:29:21;5.15;;;2.70;;
59734;SDS011;64362;45.620;4.920;2022-10-16T02:31:50;3.90;;;2.60;;
59734;SDS011;64362;45.620;4.920;2022-10-16T02:34:23;4.10;;;2.25;;
59734;SDS011;64362;45.620;4.920;2022-10-16T02:36:50;3.40;;;2.30;;
59734;SDS011;64362;45.620;4.920;2022-10-16T02:39:16;5.43;;;2.28;;
59734;SDS011;64362;45.620;4.920;2022-10-16T02:41:42;4.63;;;2.33;;
59734;SDS011;64362;45.620;4.920;2022-10-16T02:44:07;3.67;;;2.25;;
59734;SDS011;64362;45.620;4.920;2022-10-16T02:46:33;4.28;;;2.53;;
59734;SDS011;64362;45.620;4.920;2022-10-16T02:48:58;4.78;;;2.40;;
59734;SDS011;64362;45.620;4.920;2022-10-16T02:51:24;3.30;;;2.45;;
59734;SDS011;64362;45.620;4.920;2022-10-16T02:53:49;4.60;;;2.63;;
59734;SDS011;64362;45.620;4.920;2022-10-16T02:56:15;4.35;;;2.45;;
59734;SDS011;64362;45.620;4.920;2022-10-16T02:58:40;7.47;;;2.30;;
59734;SDS011;64362;45.620;4.920;2022-10-16T03:01:06;5.13;;;2.20;;
59734;SDS011;64362;45.620;4.920;2022-10-16T03:03:31;4.88;;;2.63;;
59734;SDS011;64362;45.620;4.920;2022-10-16T03:05:56;4.63;;;2.58;;
59734;SDS011;64362;45.620;4.920;2022-10-16T03:08:22;4.15;;;2.50;;
59734;SDS011;64362;45.620;4.920;2022-10-16T03:10:50;5.55;;;2.80;;
59734;SDS011;64362;45.620;4.920;2022-10-16T03:13:16;4.47;;;2.47;;
59734;SDS011;64362;45.620;4.920;2022-10-16T03:15:41;3.30;;;2.17;;
59734;SDS011;64362;45.620;4.920;2022-10-16T03:18:06;3.50;;;2.63;;
59734;SDS011;64362;45.620;4.920;2022-10-16T03:20:32;5.05;;;2.40;;
59734;SDS011;64362;45.620;4.920;2022-10-16T03:22:58;5.68;;;2.65;;
59734;SDS011;64362;45.620;4.920;2022-10-16T03:25:23;4.35;;;2.60;;
59734;SDS011;64362;45.620;4.920;2022-10-16T03:27:48;4.13;;;2.50;;
59734;SDS011;64362;45.620;4.920;2022-10-16T03:30:14;4.60;;;2.63;;
59734;SDS011;64362;45.620;4.920;2022-10-16T03:32:40;3.05;;;2.22;;
59734;SDS011;64362;45.620;4.920;2022-10-16T03:35:06;3.75;;;2.33;;
59734;SDS011;64362;45.620;4.920;2022-10-16T03:37:31;2.70;;;2.10;;
59734;SDS011;64362;45.620;4.920;2022-10-16T03:39:57;4.55;;;2.50;;
59734;SDS011;64362;45.620;4.920;2022-10-16T03:42:23;5.10;;;2.30;;
59734;SDS011;64362;45.620;4.920;2022-10-16T03:44:49;3.90;;;2.53;;
59734;SDS011;64362;45.620;4.920;2022-10-16T03:47:14;3.58;;;2.38;;
59734;SDS011;64362;45.620;4.920;2022-10-16T03:49:40;3.25;;;2.20;;
59734;SDS011;64362;45.620;4.920;2022-10-16T03:52:05;4.35;;;2.30;;
59734;SDS011;64362;45.620;4.920;2022-10-16T03:54:31;3.45;;;2.55;;
59734;SDS011;64362;45.620;4.920;2022-10-16T03:56:56;4.20;;;2.60;;
59734;SDS011;64362;45.620;4.920;2022-10-16T03:59:22;3.10;;;2.50;;
59734;SDS011;64362;45.620;4.920;2022-10-16T04:01:47;3.83;;;2.78;;
59734;SDS011;64362;45.620;4.920;2022-10-16T04:04:13;4.57;;;2.80;;
59734;SDS011;64362;45.620;4.920;2022-10-16T04:06:38;3.95;;;2.50;;
59734;SDS011;64362;45.620;4.920;2022-10-16T04:09:04;3.70;;;2.67;;
59734;SDS011;64362;45.620;4.920;2022-10-16T04:11:29;4.57;;;2.67;;
59734;SDS011;64362;45.620;4.920;2022-10-16T04:13:55;4.20;;;3.00;;
59734;SDS011;64362;45.620;4.920;2022-10-16T04:16:20;3.53;;;2.40;;
59734;SDS011;64362;45.620;4.920;2022-10-16T04:18:46;3.95;;;2.30;;
59734;SDS011;64362;45.620;4.920;2022-10-16T04:21:11;5.80;;;3.00;;
59734;SDS011;64362;45.620;4.920;2022-10-16T04:23:36;5.20;;;2.85;;
59734;SDS011;64362;45.620;4.920;2022-10-16T04:26:02;4.78;;;2.88;;
59734;SDS011;64362;45.620;4.920;2022-10-16T04:28:27;4.50;;;2.80;;
59734;SDS011;64362;45.620;4.920;2022-10-16T04:30:53;3.80;;;2.50;;
59734;SDS011;64362;45.620;4.920;2022-10-16T04:33:19;4.22;;;2.90;;
59734;SDS011;64362;45.620;4.920;2022-10-16T04:35:44;6.78;;;2.97;;
59734;SDS011;64362;45.620;4.920;2022-10-16T04:38:09;4.13;;;2.75;;
59734;SDS011;64362;45.620;4.920;2022-10-16T04:40:35;4.20;;;2.70;;
59734;SDS011;64362;45.620;4.920;2022-10-16T04:43:04;4.65;;;2.80;;
59734;SDS011;64362;45.620;4.920;2022-10-16T04:45:29;5.22;;;3.00;;
59734;SDS011;64362;45.620;4.920;2022-10-16T04:47:58;5.22;;;2.92;;
59734;SDS011;64362;45.620;4.920;2022-10-16T04:50:24;4.57;;;3.05;;
59734;SDS011;64362;45.620;4.920;2022-10-16T04:53:03;4.20;;;2.83;;
59734;SDS011;64362;45.620;4.920;2022-10-16T04:55:29;4.07;;;3.00;;
59734;SDS011;64362;45.620;4.920;2022-10-16T04:57:54;3.70;;;3.03;;
59734;SDS011;64362;45.620;4.920;2022-10-16T05:00:20;4.00;;;2.70;;
59734;SDS011;64362;45.620;4.920;2022-10-16T05:02:45;5.97;;;3.28;;
59734;SDS011;64362;45.620;4.920;2022-10-16T05:05:11;5.38;;;3.20;;
59734;SDS011;64362;45.620;4.920;2022-10-16T05:07:37;3.72;;;2.80;;
59734;SDS011;64362;45.620;4.920;2022-10-16T05:10:02;4.35;;;3.13;;
59734;SDS011;64362;45.620;4.920;2022-10-16T05:12:28;4.63;;;3.13;;
59734;SDS011;64362;45.620;4.920;2022-10-16T05:14:53;4.53;;;2.70;;
59734;SDS011;64362;45.620;4.920;2022-10-16T05:17:23;4.65;;;3.17;;
59734;SDS011;64362;45.620;4.920;2022-10-16T05:19:50;5.90;;;3.40;;
59734;SDS011;64362;45.620;4.920;2022-10-16T05:22:15;5.85;;;3.35;;
59734;SDS011;64362;45.620;4.920;2022-10-16T05:24:41;4.68;;;3.25;;
59734;SDS011;64362;45.620;4.920;2022-10-16T05:27:06;5.45;;;3.33;;
59734;SDS011;64362;45.620;4.920;2022-10-16T05:29:32;4.03;;;3.20;;
59734;SDS011;64362;45.620;4.920;2022-10-16T05:31:57;3.53;;;2.78;;
59734;SDS011;64362;45.620;4.920;2022-10-16T05:34:23;4.90;;;3.20;;
59734;SDS011;64362;45.620;4.920;2022-10-16T05:36:48;4.82;;;3.28;;
59734;SDS011;64362;45.620;4.920;2022-10-16T05:39:14;3.83;;;3.20;;
59734;SDS011;64362;45.620;4.920;2022-10-16T05:41:40;4.57;;;3.47;;
59734;SDS011;64362;45.620;4.920;2022-10-16T05:44:06;4.40;;;3.25;;
59734;SDS011;64362;45.620;4.920;2022-10-16T05:46:32;5.45;;;3.10;;
59734;SDS011;64362;45.620;4.920;2022-10-16T05:48:58;5.82;;;3.03;;
59734;SDS011;64362;45.620;4.920;2022-10-16T05:51:23;5.30;;;3.58;;
59734;SDS011;64362;45.620;4.920;2022-10-16T05:53:49;5.30;;;3.22;;
59734;SDS011;64362;45.620;4.920;2022-10-16T05:56:14;5.22;;;3.35;;
59734;SDS011;64362;45.620;4.920;2022-10-16T05:58:40;3.97;;;2.92;;
59734;SDS011;64362;45.620;4.920;2022-10-16T06:01:07;5.50;;;3.33;;
59734;SDS011;64362;45.620;4.920;2022-10-16T06:03:34;5.18;;;3.67;;
59734;SDS011;64362;45.620;4.920;2022-10-16T06:06:07;5.07;;;3.30;;
59734;SDS011;64362;45.620;4.920;2022-10-16T06:08:33;6.28;;;3.70;;
59734;SDS011;64362;45.620;4.920;2022-10-16T06:11:06;6.32;;;3.63;;
59734;SDS011;64362;45.620;4.920;2022-10-16T06:13:32;5.53;;;3.50;;
59734;SDS011;64362;45.620;4.920;2022-10-16T06:15:59;8.90;;;3.80;;
59734;SDS011;64362;45.620;4.920;2022-10-16T06:18:25;10.98;;;4.05;;
59734;SDS011;64362;45.620;4.920;2022-10-16T06:20:52;8.88;;;3.70;;
59734;SDS011;64362;45.620;4.920;2022-10-16T06:23:17;9.77;;;4.50;;
59734;SDS011;64362;45.620;4.920;2022-10-16T06:25:43;9.02;;;4.07;;
59734;SDS011;64362;45.620;4.920;2022-10-16T06:28:08;12.98;;;4.50;;
59734;SDS011;64362;45.620;4.920;2022-10-16T06:30:34;13.98;;;4.70;;
59734;SDS011;64362;45.620;4.920;2022-10-16T06:32:59;15.45;;;5.53;;
59734;SDS011;64362;45.620;4.920;2022-10-16T06:35:24;11.63;;;4.65;;
59734;SDS011;64362;45.620;4.920;2022-10-16T06:37:52;16.98;;;4.97;;
59734;SDS011;64362;45.620;4.920;2022-10-16T06:40:18;14.35;;;4.63;;
59734;SDS011;64362;45.620;4.920;2022-10-16T06:42:43;14.35;;;4.65;;
59734;SDS011;64362;45.620;4.920;2022-10-16T06:45:09;14.98;;;4.63;;
59734;SDS011;64362;45.620;4.920;2022-10-16T06:47:34;12.23;;;4.90;;
59734;SDS011;64362;45.620;4.920;2022-10-16T06:50:00;13.15;;;4.60;;
59734;SDS011;64362;45.620;4.920;2022-10-16T06:52:27;11.65;;;4.90;;
59734;SDS011;64362;45.620;4.920;2022-10-16T06:54:53;15.05;;;5.18;;
59734;SDS011;64362;45.620;4.920;2022-10-16T06:57:18;11.88;;;5.10;;
59734;SDS011;64362;45.620;4.920;2022-10-16T06:59:44;11.57;;;5.07;;
59734;SDS011;64362;45.620;4.920;2022-10-16T07:02:09;15.18;;;5.05;;
59734;SDS011;64362;45.620;4.920;2022-10-16T07:04:35;9.25;;;5.15;;
59734;SDS011;64362;45.620;4.920;2022-10-16T07:07:01;14.00;;;5.10;;
59734;SDS011;64362;45.620;4.920;2022-10-16T07:09:26;15.85;;;5.85;;
59734;SDS011;64362;45.620;4.920;2022-10-16T07:11:51;12.63;;;5.30;;
59734;SDS011;64362;45.620;4.920;2022-10-16T07:14:19;12.13;;;5.43;;
59734;SDS011;64362;45.620;4.920;2022-10-16T07:16:45;12.20;;;5.10;;
59734;SDS011;64362;45.620;4.920;2022-10-16T07:19:11;15.32;;;5.55;;
59734;SDS011;64362;45.620;4.920;2022-10-16T07:21:39;12.27;;;5.00;;
59734;SDS011;64362;45.620;4.920;2022-10-16T07:24:05;11.90;;;4.95;;
59734;SDS011;64362;45.620;4.920;2022-10-16T07:26:33;13.07;;;5.45;;
59734;SDS011;64362;45.620;4.920;2022-10-16T07:29:00;16.73;;;5.40;;
59734;SDS011;64362;45.620;4.920;2022-10-16T07:31:26;11.80;;;4.78;;
59734;SDS011;64362;45.620;4.920;2022-10-16T07:33:52;13.05;;;5.82;;
59734;SDS011;64362;45.620;4.920;2022-10-16T07:36:18;11.70;;;5.43;;
59734;SDS011;64362;45.620;4.920;2022-10-16T07:38:44;12.40;;;5.15;;
59734;SDS011;64362;45.620;4.920;2022-10-16T07:41:12;12.60;;;5.40;;
59734;SDS011;64362;45.620;4.920;2022-10-16T07:43:38;11.43;;;5.18;;
59734;SDS011;64362;45.620;4.920;2022-10-16T07:46:04;11.45;;;4.93;;
59734;SDS011;64362;45.620;4.920;2022-10-16T07:48:30;15.05;;;5.40;;
59734;SDS011;64362;45.620;4.920;2022-10-16T07:50:57;15.40;;;5.45;;
59734;SDS011;64362;45.620;4.920;2022-10-16T07:53:24;11.13;;;5.20;;
59734;SDS011;64362;45.620;4.920;2022-10-16T07:55:49;13.38;;;5.47;;
59734;SDS011;64362;45.620;4.920;2022-10-16T07:58:15;14.30;;;5.60;;
59734;SDS011;64362;45.620;4.920;2022-10-16T08:00:40;20.67;;;5.50;;
59734;SDS011;64362;45.620;4.920;2022-10-16T08:03:06;14.23;;;5.38;;
59734;SDS011;64362;45.620;4.920;2022-10-16T08:05:32;18.80;;;5.88;;
59734;SDS011;64362;45.620;4.920;2022-10-16T08:07:58;19.40;;;5.35;;
59734;SDS011;64362;45.620;4.920;2022-10-16T08:10:25;15.93;;;5.18;;
59734;SDS011;64362;45.620;4.920;2022-10-16T08:12:51;14.63;;;5.43;;
59734;SDS011;64362;45.620;4.920;2022-10-16T08:15:17;15.07;;;5.00;;
59734;SDS011;64362;45.620;4.920;2022-10-16T08:17:42;15.73;;;4.93;;
59734;SDS011;64362;45.620;4.920;2022-10-16T08:20:08;10.25;;;4.63;;
59734;SDS011;64362;45.620;4.920;2022-10-16T08:22:34;17.33;;;5.55;;
59734;SDS011;64362;45.620;4.920;2022-10-16T08:25:00;17.92;;;6.07;;
59734;SDS011;64362;45.620;4.920;2022-10-16T08:27:30;15.55;;;5.45;;
59734;SDS011;64362;45.620;4.920;2022-10-16T08:29:56;13.40;;;5.43;;
59734;SDS011;64362;45.620;4.920;2022-10-16T08:32:22;17.05;;;5.65;;
59734;SDS011;64362;45.620;4.920;2022-10-16T08:34:47;13.65;;;5.43;;
59734;SDS011;64362;45.620;4.920;2022-10-16T08:37:13;15.93;;;5.90;;
59734;SDS011;64362;45.620;4.920;2022-10-16T08:39:39;13.75;;;5.47;;
59734;SDS011;64362;45.620;4.920;2022-10-16T08:42:11;15.25;;;5.47;;
59734;SDS011;64362;45.620;4.920;2022-10-16T08:47:34;11.73;;;5.22;;
59734;SDS011;64362;45.620;4.920;2022-10-16T08:50:14;9.93;;;5.15;;
59734;SDS011;64362;45.620;4.920;2022-10-16T08:52:43;12.05;;;5.00;;
59734;SDS011;64362;45.620;4.920;2022-10-16T08:55:55;11.85;;;5.22;;
59734;SDS011;64362;45.620;4.920;2022-10-16T08:58:13;10.80;;;5.30;;
59734;SDS011;64362;45.620;4.920;2022-10-16T09:00:40;9.70;;;5.32;;
59734;SDS011;64362;45.620;4.920;2022-10-16T09:03:14;9.90;;;5.68;;
59734;SDS011;64362;45.620;4.920;2022-10-16T09:11:17;11.45;;;5.45;;
59734;SDS011;64362;45.620;4.920;2022-10-16T09:14:00;12.60;;;5.15;;
59734;SDS011;64362;45.620;4.920;2022-10-16T09:16:45;9.55;;;4.82;;
59734;SDS011;64362;45.620;4.920;2022-10-16T09:19:32;9.82;;;4.85;;
59734;SDS011;64362;45.620;4.920;2022-10-16T09:22:08;9.25;;;5.03;;
59734;SDS011;64362;45.620;4.920;2022-10-16T09:24:37;8.63;;;5.30;;
59734;SDS011;64362;45.620;4.920;2022-10-16T09:27:03;8.23;;;5.00;;
59734;SDS011;64362;45.620;4.920;2022-10-16T09:29:28;11.85;;;5.10;;
59734;SDS011;64362;45.620;4.920;2022-10-16T09:31:54;9.13;;;5.03;;
59734;SDS011;64362;45.620;4.920;2022-10-16T09:35:09;8.60;;;5.13;;
59734;SDS011;64362;45.620;4.920;2022-10-16T09:37:12;11.48;;;5.13;;
59734;SDS011;64362;45.620;4.920;2022-10-16T09:39:46;10.20;;;5.20;;
59734;SDS011;64362;45.620;4.920;2022-10-16T09:42:18;10.63;;;5.47;;
59734;SDS011;64362;45.620;4.920;2022-10-16T09:44:47;9.45;;;4.93;;
59734;SDS011;64362;45.620;4.920;2022-10-16T09:47:15;10.07;;;5.10;;
59734;SDS011;64362;45.620;4.920;2022-10-16T09:49:56;8.45;;;5.05;;
59734;SDS011;64362;45.620;4.920;2022-10-16T09:52:27;8.23;;;4.50;;
59734;SDS011;64362;45.620;4.920;2022-10-16T09:54:55;6.30;;;4.80;;
59734;SDS011;64362;45.620;4.920;2022-10-16T09:57:22;7.78;;;5.07;;
59734;SDS011;64362;45.620;4.920;2022-10-16T09:59:49;9.23;;;4.60;;
59734;SDS011;64362;45.620;4.920;2022-10-16T10:02:16;10.18;;;5.00;;
59734;SDS011;64362;45.620;4.920;2022-10-16T10:04:48;7.13;;;4.70;;
59734;SDS011;64362;45.620;4.920;2022-10-16T10:07:26;9.38;;;4.90;;
59734;SDS011;64362;45.620;4.920;2022-10-16T10:10:04;7.43;;;4.45;;
59734;SDS011;64362;45.620;4.920;2022-10-16T10:12:31;7.80;;;4.60;;
59734;SDS011;64362;45.620;4.920;2022-10-16T10:14:58;8.90;;;4.88;;
59734;SDS011;64362;45.620;4.920;2022-10-16T10:17:28;8.05;;;4.95;;
59734;SDS011;64362;45.620;4.920;2022-10-16T10:19:55;8.27;;;4.63;;
59734;SDS011;64362;45.620;4.920;2022-10-16T10:24:55;6.72;;;4.30;;
59734;SDS011;64362;45.620;4.920;2022-10-16T10:27:21;8.05;;;4.32;;
59734;SDS011;64362;45.620;4.920;2022-10-16T10:30:14;9.48;;;5.22;;
59734;SDS011;64362;45.620;4.920;2022-10-16T10:32:50;7.97;;;4.63;;
59734;SDS011;64362;45.620;4.920;2022-10-16T10:35:34;5.30;;;4.30;;
59734;SDS011;64362;45.620;4.920;2022-10-16T10:46:20;28.83;;;11.23;;
59734;SDS011;64362;45.620;4.920;2022-10-16T10:49:20;52.72;;;22.52;;
59734;SDS011;64362;45.620;4.920;2022-10-16T10:57:35;90.97;;;41.17;;
59734;SDS011;64362;45.620;4.920;2022-10-16T11:05:52;81.35;;;33.30;;
59734;SDS011;64362;45.620;4.920;2022-10-16T11:08:23;74.40;;;34.20;;
59734;SDS011;64362;45.620;4.920;2022-10-16T11:10:54;69.25;;;34.17;;
59734;SDS011;64362;45.620;4.920;2022-10-16T11:15:57;68.10;;;27.75;;
59734;SDS011;64362;45.620;4.920;2022-10-16T11:21:06;45.83;;;21.83;;
59734;SDS011;64362;45.620;4.920;2022-10-16T11:23:40;45.88;;;21.65;;
59734;SDS011;64362;45.620;4.920;2022-10-16T11:26:26;34.08;;;18.52;;
59734;SDS011;64362;45.620;4.920;2022-10-16T11:28:54;40.40;;;18.58;;
59734;SDS011;64362;45.620;4.920;2022-10-16T11:31:38;32.00;;;16.50;;
59734;SDS011;64362;45.620;4.920;2022-10-16T11:34:24;30.95;;;15.93;;
59734;SDS011;64362;45.620;4.920;2022-10-16T11:39:25;27.08;;;13.38;;
59734;SDS011;64362;45.620;4.920;2022-10-16T11:41:58;24.50;;;12.75;;
59734;SDS011;64362;45.620;4.920;2022-10-16T11:55:39;176.40;;;81.90;;
59734;SDS011;64362;45.620;4.920;2022-10-16T11:58:07;148.95;;;71.22;;
59734;SDS011;64362;45.620;4.920;2022-10-16T12:00:43;130.85;;;62.60;;
59734;SDS011;64362;45.620;4.920;2022-10-16T12:16:24;74.90;;;37.22;;
59734;SDS011;64362;45.620;4.920;2022-10-16T12:18:49;62.25;;;32.63;;
59734;SDS011;64362;45.620;4.920;2022-10-16T12:21:32;62.17;;;31.30;;
59734;SDS011;64362;45.620;4.920;2022-10-16T12:23:58;60.67;;;29.67;;
59734;SDS011;64362;45.620;4.920;2022-10-16T12:26:29;50.22;;;26.13;;
59734;SDS011;64362;45.620;4.920;2022-10-16T12:29:09;60.28;;;28.73;;
59734;SDS011;64362;45.620;4.920;2022-10-16T12:31:39;51.55;;;26.27;;
59734;SDS011;64362;45.620;4.920;2022-10-16T12:34:32;46.42;;;26.25;;
59734;SDS011;64362;45.620;4.920;2022-10-16T12:37:10;43.85;;;23.48;;
59734;SDS011;64362;45.620;4.920;2022-10-16T12:39:40;50.42;;;24.40;;
59734;SDS011;64362;45.620;4.920;2022-10-16T12:42:19;41.80;;;22.42;;
59734;SDS011;64362;45.620;4.920;2022-10-16T12:44:51;40.17;;;22.35;;
59734;SDS011;64362;45.620;4.920;2022-10-16T12:47:21;37.28;;;21.45;;
59734;SDS011;64362;45.620;4.920;2022-10-16T12:53:25;35.17;;;18.70;;
59734;SDS011;64362;45.620;4.920;2022-10-16T12:56:03;31.95;;;17.08;;
59734;SDS011;64362;45.620;4.920;2022-10-16T12:58:42;32.55;;;17.15;;
59734;SDS011;64362;45.620;4.920;2022-10-16T13:04:30;28.77;;;15.20;;
59734;SDS011;64362;45.620;4.920;2022-10-16T13:07:20;25.70;;;14.60;;
59734;SDS011;64362;45.620;4.920;2022-10-16T13:10:05;23.00;;;13.10;;
59734;SDS011;64362;45.620;4.920;2022-10-16T13:17:51;20.88;;;12.13;;
59734;SDS011;64362;45.620;4.920;2022-10-16T13:20:44;17.10;;;12.23;;
59734;SDS011;64362;45.620;4.920;2022-10-16T13:29:15;16.52;;;9.95;;
59734;SDS011;64362;45.620;4.920;2022-10-16T13:31:40;17.90;;;10.23;;
59734;SDS011;64362;45.620;4.920;2022-10-16T13:34:12;18.75;;;10.63;;
59734;SDS011;64362;45.620;4.920;2022-10-16T13:36:50;15.80;;;9.63;;
59734;SDS011;64362;45.620;4.920;2022-10-16T13:42:06;15.63;;;9.70;;
59734;SDS011;64362;45.620;4.920;2022-10-16T13:44:48;16.83;;;8.93;;
59734;SDS011;64362;45.620;4.920;2022-10-16T13:47:20;14.63;;;8.15;;
59734;SDS011;64362;45.620;4.920;2022-10-16T13:52:50;13.02;;;7.85;;
59734;SDS011;64362;45.620;4.920;2022-10-16T13:55:16;14.45;;;7.75;;
59734;SDS011;64362;45.620;4.920;2022-10-16T13:57:43;13.68;;;7.28;;
59734;SDS011;64362;45.620;4.920;2022-10-16T14:00:25;11.48;;;6.88;;
59734;SDS011;64362;45.620;4.920;2022-10-16T14:02:57;11.77;;;7.05;;
59734;SDS011;64362;45.620;4.920;2022-10-16T14:05:26;10.45;;;6.90;;
59734;SDS011;64362;45.620;4.920;2022-10-16T14:07:51;9.48;;;6.20;;
59734;SDS011;64362;45.620;4.920;2022-10-16T14:10:20;10.18;;;6.75;;
59734;SDS011;64362;45.620;4.920;2022-10-16T14:13:00;8.77;;;6.07;;
59734;SDS011;64362;45.620;4.920;2022-10-16T14:15:27;9.73;;;5.82;;
59734;SDS011;64362;45.620;4.920;2022-10-16T14:17:54;8.50;;;5.60;;
59734;SDS011;64362;45.620;4.920;2022-10-16T14:20:20;9.23;;;5.60;;
59734;SDS011;64362;45.620;4.920;2022-10-16T14:22:57;8.68;;;5.57;;
59734;SDS011;64362;45.620;4.920;2022-10-16T14:25:43;9.20;;;6.03;;
59734;SDS011;64362;45.620;4.920;2022-10-16T14:30:35;8.52;;;5.60;;
59734;SDS011;64362;45.620;4.920;2022-10-16T14:33:05;9.27;;;5.30;;
59734;SDS011;64362;45.620;4.920;2022-10-16T14:35:33;6.70;;;4.78;;
59734;SDS011;64362;45.620;4.920;2022-10-16T14:38:03;5.65;;;4.25;;
59734;SDS011;64362;45.620;4.920;2022-10-16T14:40:30;5.57;;;4.57;;
59734;SDS011;64362;45.620;4.920;2022-10-16T14:43:00;5.28;;;3.80;;
59734;SDS011;64362;45.620;4.920;2022-10-16T14:45:27;4.85;;;4.10;;
59734;SDS011;64362;45.620;4.920;2022-10-16T14:47:55;5.15;;;3.78;;
59734;SDS011;64362;45.620;4.920;2022-10-16T14:50:22;5.15;;;3.85;;
59734;SDS011;64362;45.620;4.920;2022-10-16T14:52:48;6.05;;;3.53;;
59734;SDS011;64362;45.620;4.920;2022-10-16T14:55:14;5.47;;;3.97;;
59734;SDS011;64362;45.620;4.920;2022-10-16T14:57:39;5.32;;;3.67;;
59734;SDS011;64362;45.620;4.920;2022-10-16T15:00:23;4.60;;;3.60;;
59734;SDS011;64362;45.620;4.920;2022-10-16T15:02:49;5.70;;;3.50;;
59734;SDS011;64362;45.620;4.920;2022-10-16T15:07:44;5.82;;;3.80;;
59734;SDS011;64362;45.620;4.920;2022-10-16T15:10:11;5.20;;;3.97;;
59734;SDS011;64362;45.620;4.920;2022-10-16T15:12:37;4.78;;;3.88;;
59734;SDS011;64362;45.620;4.920;2022-10-16T15:15:11;5.32;;;3.67;;
59734;SDS011;64362;45.620;4.920;2022-10-16T15:17:43;6.18;;;4.10;;
59734;SDS011;64362;45.620;4.920;2022-10-16T15:20:09;5.20;;;4.13;;
59734;SDS011;64362;45.620;4.920;2022-10-16T15:22:34;4.22;;;3.35;;
59734;SDS011;64362;45.620;4.920;2022-10-16T15:25:00;5.68;;;4.03;;
59734;SDS011;64362;45.620;4.920;2022-10-16T15:27:25;5.82;;;3.85;;
59734;SDS011;64362;45.620;4.920;2022-10-16T15:29:50;6.13;;;4.18;;
59734;SDS011;64362;45.620;4.920;2022-10-16T15:32:16;6.22;;;4.38;;
59734;SDS011;64362;45.620;4.920;2022-10-16T15:34:41;6.57;;;4.10;;
59734;SDS011;64362;45.620;4.920;2022-10-16T15:37:08;61.40;;;17.58;;
59734;SDS011;64362;45.620;4.920;2022-10-16T15:39:34;47.22;;;15.15;;
59734;SDS011;64362;45.620;4.920;2022-10-16T15:41:59;45.00;;;15.98;;
59734;SDS011;64362;45.620;4.920;2022-10-16T15:44:24;52.58;;;18.25;;
59734;SDS011;64362;45.620;4.920;2022-10-16T15:46:55;67.35;;;28.33;;
59734;SDS011;64362;45.620;4.920;2022-10-16T15:49:21;62.38;;;29.63;;
59734;SDS011;64362;45.620;4.920;2022-10-16T15:51:47;61.72;;;29.05;;
59734;SDS011;64362;45.620;4.920;2022-10-16T15:54:12;67.32;;;29.65;;
59734;SDS011;64362;45.620;4.920;2022-10-16T15:56:37;59.78;;;29.75;;
59734;SDS011;64362;45.620;4.920;2022-10-16T15:59:03;52.30;;;26.83;;
59734;SDS011;64362;45.620;4.920;2022-10-16T16:01:33;53.90;;;26.08;;
59734;SDS011;64362;45.620;4.920;2022-10-16T16:03:59;41.70;;;21.15;;
59734;SDS011;64362;45.620;4.920;2022-10-16T16:06:25;23.83;;;13.55;;
59734;SDS011;64362;45.620;4.920;2022-10-16T16:08:50;27.25;;;13.57;;
59734;SDS011;64362;45.620;4.920;2022-10-16T16:11:16;28.67;;;14.13;;
59734;SDS011;64362;45.620;4.920;2022-10-16T16:13:42;25.00;;;14.15;;
59734;SDS011;64362;45.620;4.920;2022-10-16T16:16:08;24.67;;;13.25;;
59734;SDS011;64362;45.620;4.920;2022-10-16T16:18:36;28.40;;;12.25;;
59734;SDS011;64362;45.620;4.920;2022-10-16T16:21:02;17.65;;;11.00;;
59734;SDS011;64362;45.620;4.920;2022-10-16T16:23:28;26.38;;;12.48;;
59734;SDS011;64362;45.620;4.920;2022-10-16T16:26:07;24.23;;;12.20;;
59734;SDS011;64362;45.620;4.920;2022-10-16T16:28:35;21.20;;;11.43;;
59734;SDS011;64362;45.620;4.920;2022-10-16T16:31:01;22.75;;;11.43;;
59734;SDS011;64362;45.620;4.920;2022-10-16T16:33:27;21.10;;;11.55;;
59734;SDS011;64362;45.620;4.920;2022-10-16T16:35:57;17.73;;;9.75;;
59734;SDS011;64362;45.620;4.920;2022-10-16T16:38:23;15.68;;;9.60;;
59734;SDS011;64362;45.620;4.920;2022-10-16T16:40:49;15.35;;;9.25;;
59734;SDS011;64362;45.620;4.920;2022-10-16T16:43:14;13.18;;;8.52;;
59734;SDS011;64362;45.620;4.920;2022-10-16T16:45:40;17.83;;;8.75;;
59734;SDS011;64362;45.620;4.920;2022-10-16T16:48:05;13.88;;;8.82;;